sensor_id;sensor_type;location;lat;lon;timestamp;pressure;altitude;pressure_sealevel;temperature
73894;BMP280;62699;50.534;12.784;2022-11-12T00:06:11;98055.19;;;3.20
73894;BMP280;62699;50.534;12.784;2022-11-12T00:11:11;98055.25;;;3.13
73894;BMP280;62699;50.534;12.784;2022-11-12T00:16:11;98052.97;;;3.12
73894;BMP280;62699;50.534;12.784;2022-11-12T00:21:11;98046.94;;;3.08
73894;BMP280;62699;50.534;12.784;2022-11-12T00:26:12;98043.59;;;3.00
73894;BMP280;62699;50.534;12.784;2022-11-12T00:31:12;98055.38;;;2.95
73894;BMP280;62699;50.534;12.784;2022-11-12T00:36:13;98061.53;;;2.92
73894;BMP280;62699;50.534;12.784;2022-11-12T00:41:13;98056.63;;;2.91
73894;BMP280;62699;50.534;12.784;2022-11-12T00:46:13;98061.19;;;2.87
73894;BMP280;62699;50.534;12.784;2022-11-12T00:51:14;98060.50;;;2.83
73894;BMP280;62699;50.534;12.784;2022-11-12T00:56:14;98063.94;;;2.80
73894;BMP280;62699;50.534;12.784;2022-11-12T01:01:15;98067.72;;;2.79
73894;BMP280;62699;50.534;12.784;2022-11-12T01:06:19;98068.47;;;2.79
73894;BMP280;62699;50.534;12.784;2022-11-12T01:11:22;98066.97;;;2.78
73894;BMP280;62699;50.534;12.784;2022-11-12T01:16:24;98066.22;;;2.78
73894;BMP280;62699;50.534;12.784;2022-11-12T01:21:27;98068.13;;;2.77
73894;BMP280;62699;50.534;12.784;2022-11-12T01:26:28;98061.69;;;2.75
73894;BMP280;62699;50.534;12.784;2022-11-12T01:31:32;98062.09;;;2.73
73894;BMP280;62699;50.534;12.784;2022-11-12T01:36:36;98051.06;;;2.75
73894;BMP280;62699;50.534;12.784;2022-11-12T01:41:38;98053.31;;;2.76
73894;BMP280;62699;50.534;12.784;2022-11-12T01:46:56;98055.94;;;2.80
73894;BMP280;62699;50.534;12.784;2022-11-12T01:52:03;98058.59;;;2.80
73894;BMP280;62699;50.534;12.784;2022-11-12T01:57:09;98058.59;;;2.80
73894;BMP280;62699;50.534;12.784;2022-11-12T02:02:11;98054.81;;;2.81
73894;BMP280;62699;50.534;12.784;2022-11-12T02:07:11;98044.16;;;2.81
73894;BMP280;62699;50.534;12.784;2022-11-12T02:12:12;98049.84;;;2.83
73894;BMP280;62699;50.534;12.784;2022-11-12T02:17:32;98035.78;;;2.82
73894;BMP280;62699;50.534;12.784;2022-11-12T02:22:33;98037.31;;;2.80
73894;BMP280;62699;50.534;12.784;2022-11-12T02:27:33;98026.66;;;2.83
73894;BMP280;62699;50.534;12.784;2022-11-12T02:32:34;98022.81;;;2.88
73894;BMP280;62699;50.534;12.784;2022-11-12T02:37:34;98016.78;;;2.84
73894;BMP280;62699;50.534;12.784;2022-11-12T02:42:34;98021.28;;;2.87
73894;BMP280;62699;50.534;12.784;2022-11-12T02:47:35;98007.66;;;2.85
73894;BMP280;62699;50.534;12.784;2022-11-12T02:52:35;98015.97;;;2.87
73894;BMP280;62699;50.534;12.784;2022-11-12T02:57:36;98015.97;;;2.87
73894;BMP280;62699;50.534;12.784;2022-11-12T03:02:37;98017.13;;;2.86
73894;BMP280;62699;50.534;12.784;2022-11-12T03:07:41;98021.28;;;2.87
73894;BMP280;62699;50.534;12.784;2022-11-12T03:12:42;98022.06;;;2.87
73894;BMP280;62699;50.534;12.784;2022-11-12T03:17:42;98019.00;;;2.89
73894;BMP280;62699;50.534;12.784;2022-11-12T03:22:54;98017.09;;;2.89
73894;BMP280;62699;50.534;12.784;2022-11-12T03:27:58;98013.31;;;2.87
73894;BMP280;62699;50.534;12.784;2022-11-12T03:32:58;98015.22;;;2.86
73894;BMP280;62699;50.534;12.784;2022-11-12T03:37:59;98012.97;;;2.85
73894;BMP280;62699;50.534;12.784;2022-11-12T03:43:00;98014.50;;;2.82
73894;BMP280;62699;50.534;12.784;2022-11-12T03:48:00;98015.63;;;2.85
73894;BMP280;62699;50.534;12.784;2022-11-12T03:53:01;98006.91;;;2.81
73894;BMP280;62699;50.534;12.784;2022-11-12T03:58:01;98016.47;;;2.75
73894;BMP280;62699;50.534;12.784;2022-11-12T04:03:01;98014.59;;;2.72
73894;BMP280;62699;50.534;12.784;2022-11-12T04:08:05;98017.66;;;2.66
73894;BMP280;62699;50.534;12.784;2022-11-12T04:13:24;98019.28;;;2.60
73894;BMP280;62699;50.534;12.784;2022-11-12T04:18:47;98022.72;;;2.57
73894;BMP280;62699;50.534;12.784;2022-11-12T04:24:06;98018.59;;;2.49
73894;BMP280;62699;50.534;12.784;2022-11-12T04:29:06;98025.50;;;2.43
73894;BMP280;62699;50.534;12.784;2022-11-12T04:34:26;98016.00;;;2.39
73894;BMP280;62699;50.534;12.784;2022-11-12T04:39:29;98009.25;;;2.31
73894;BMP280;62699;50.534;12.784;2022-11-12T04:44:30;98013.09;;;2.26
73894;BMP280;62699;50.534;12.784;2022-11-12T04:49:49;98013.88;;;2.23
73894;BMP280;62699;50.534;12.784;2022-11-12T04:54:50;98023.00;;;2.18
73894;BMP280;62699;50.534;12.784;2022-11-12T04:59:51;98014.72;;;2.13
73894;BMP280;62699;50.534;12.784;2022-11-12T05:04:51;98016.63;;;2.09
73894;BMP280;62699;50.534;12.784;2022-11-12T05:09:51;98023.88;;;2.01
73894;BMP280;62699;50.534;12.784;2022-11-12T05:14:52;98021.25;;;1.94
73894;BMP280;62699;50.534;12.784;2022-11-12T05:19:52;98024.31;;;1.89
73894;BMP280;62699;50.534;12.784;2022-11-12T05:24:53;98022.84;;;1.84
73894;BMP280;62699;50.534;12.784;2022-11-12T05:30:03;98028.19;;;1.77
73894;BMP280;62699;50.534;12.784;2022-11-12T05:35:04;98030.09;;;1.73
73894;BMP280;62699;50.534;12.784;2022-11-12T05:40:05;98030.13;;;1.66
73894;BMP280;62699;50.534;12.784;2022-11-12T05:45:06;98038.50;;;1.61
73894;BMP280;62699;50.534;12.784;2022-11-12T05:50:07;98030.16;;;1.56
73894;BMP280;62699;50.534;12.784;2022-11-12T05:55:07;98019.59;;;1.48
73894;BMP280;62699;50.534;12.784;2022-11-12T06:00:08;98026.03;;;1.44
73894;BMP280;62699;50.534;12.784;2022-11-12T06:05:09;98037.44;;;1.41
73894;BMP280;62699;50.534;12.784;2022-11-12T06:10:09;98039.31;;;1.37
73894;BMP280;62699;50.534;12.784;2022-11-12T06:15:09;98045.41;;;1.34
73894;BMP280;62699;50.534;12.784;2022-11-12T06:20:10;98047.34;;;1.30
73894;BMP280;62699;50.534;12.784;2022-11-12T06:25:10;98049.63;;;1.28
73894;BMP280;62699;50.534;12.784;2022-11-12T06:30:11;98060.22;;;1.28
73894;BMP280;62699;50.534;12.784;2022-11-12T06:35:12;98064.41;;;1.32
73894;BMP280;62699;50.534;12.784;2022-11-12T06:40:12;98067.00;;;1.36
73894;BMP280;62699;50.534;12.784;2022-11-12T06:45:13;98080.63;;;1.45
73894;BMP280;62699;50.534;12.784;2022-11-12T06:50:13;98076.81;;;1.57
73894;BMP280;62699;50.534;12.784;2022-11-12T06:55:14;98072.22;;;1.68
73894;BMP280;62699;50.534;12.784;2022-11-12T07:00:14;98071.06;;;1.79
73894;BMP280;62699;50.534;12.784;2022-11-12T07:05:15;98074.44;;;1.83
73894;BMP280;62699;50.534;12.784;2022-11-12T07:10:15;98077.00;;;1.98
73894;BMP280;62699;50.534;12.784;2022-11-12T07:15:15;98073.88;;;2.17
73894;BMP280;62699;50.534;12.784;2022-11-12T07:20:16;98072.66;;;2.32
73894;BMP280;62699;50.534;12.784;2022-11-12T07:25:16;98071.59;;;2.74
73894;BMP280;62699;50.534;12.784;2022-11-12T07:30:16;98063.09;;;3.58
73894;BMP280;62699;50.534;12.784;2022-11-12T07:35:17;98063.94;;;4.58
73894;BMP280;62699;50.534;12.784;2022-11-12T07:40:17;98058.56;;;5.44
73894;BMP280;62699;50.534;12.784;2022-11-12T07:45:17;98066.94;;;6.31
73894;BMP280;62699;50.534;12.784;2022-11-12T07:50:18;98066.88;;;7.37
73894;BMP280;62699;50.534;12.784;2022-11-12T07:55:18;98056.94;;;8.01
73894;BMP280;62699;50.534;12.784;2022-11-12T08:00:18;98049.16;;;9.06
73894;BMP280;62699;50.534;12.784;2022-11-12T08:05:19;98056.94;;;9.04
73894;BMP280;62699;50.534;12.784;2022-11-12T08:10:19;98052.34;;;9.76
73894;BMP280;62699;50.534;12.784;2022-11-12T08:15:19;98051.56;;;10.51
73894;BMP280;62699;50.534;12.784;2022-11-12T08:20:20;98058.13;;;10.69
73894;BMP280;62699;50.534;12.784;2022-11-12T08:25:20;98058.19;;;9.83
73894;BMP280;62699;50.534;12.784;2022-11-12T08:30:21;98055.59;;;10.38
73894;BMP280;62699;50.534;12.784;2022-11-12T08:35:21;98047.66;;;10.43
73894;BMP280;62699;50.534;12.784;2022-11-12T08:40:21;98059.50;;;10.73
73894;BMP280;62699;50.534;12.784;2022-11-12T08:45:21;98049.03;;;10.57
73894;BMP280;62699;50.534;12.784;2022-11-12T08:50:22;98059.44;;;10.91
73894;BMP280;62699;50.534;12.784;2022-11-12T08:55:22;98048.97;;;11.02
73894;BMP280;62699;50.534;12.784;2022-11-12T09:00:22;98040.34;;;10.62
73894;BMP280;62699;50.534;12.784;2022-11-12T09:05:23;98041.97;;;10.69
73894;BMP280;62699;50.534;12.784;2022-11-12T09:10:24;98041.81;;;10.81
73894;BMP280;62699;50.534;12.784;2022-11-12T09:15:25;98048.38;;;10.89
73894;BMP280;62699;50.534;12.784;2022-11-12T09:20:26;98044.06;;;11.34
73894;BMP280;62699;50.534;12.784;2022-11-12T09:25:30;98041.50;;;11.39
73894;BMP280;62699;50.534;12.784;2022-11-12T09:30:30;98040.03;;;11.62
73894;BMP280;62699;50.534;12.784;2022-11-12T09:35:31;98033.75;;;11.65
73894;BMP280;62699;50.534;12.784;2022-11-12T09:40:55;98037.44;;;12.01
73894;BMP280;62699;50.534;12.784;2022-11-12T09:46:05;98020.00;;;12.25
73894;BMP280;62699;50.534;12.784;2022-11-12T09:51:21;98025.41;;;12.40
73894;BMP280;62699;50.534;12.784;2022-11-12T09:56:24;98032.53;;;12.67
73894;BMP280;62699;50.534;12.784;2022-11-12T10:06:54;98016.78;;;12.95
73894;BMP280;62699;50.534;12.784;2022-11-12T10:12:23;98020.41;;;13.06
73894;BMP280;62699;50.534;12.784;2022-11-12T10:17:38;98017.00;;;13.26
73894;BMP280;62699;50.534;12.784;2022-11-12T10:33:18;98001.94;;;13.74
73894;BMP280;62699;50.534;12.784;2022-11-12T10:38:24;97988.22;;;13.83
73894;BMP280;62699;50.534;12.784;2022-11-12T10:43:26;97990.28;;;13.89
73894;BMP280;62699;50.534;12.784;2022-11-12T10:48:31;97979.31;;;13.98
73894;BMP280;62699;50.534;12.784;2022-11-12T10:53:37;97981.41;;;13.88
73894;BMP280;62699;50.534;12.784;2022-11-12T10:58:38;97981.69;;;13.90
73894;BMP280;62699;50.534;12.784;2022-11-12T11:03:49;97967.69;;;13.92
73894;BMP280;62699;50.534;12.784;2022-11-12T11:09:07;97982.56;;;14.02
73894;BMP280;62699;50.534;12.784;2022-11-12T11:19:21;97970.34;;;14.38
73894;BMP280;62699;50.534;12.784;2022-11-12T11:29:48;97974.38;;;14.48
73894;BMP280;62699;50.534;12.784;2022-11-12T11:35:01;97964.00;;;14.46
73894;BMP280;62699;50.534;12.784;2022-11-12T11:40:10;97976.88;;;14.51
73894;BMP280;62699;50.534;12.784;2022-11-12T11:45:22;97968.00;;;14.51
73894;BMP280;62699;50.534;12.784;2022-11-12T11:50:38;97952.69;;;14.48
73894;BMP280;62699;50.534;12.784;2022-11-12T12:05:49;97953.13;;;14.41
73894;BMP280;62699;50.534;12.784;2022-11-12T12:11:02;97956.03;;;14.37
73894;BMP280;62699;50.534;12.784;2022-11-12T12:21:36;97947.19;;;14.11
73894;BMP280;62699;50.534;12.784;2022-11-12T12:26:52;97945.09;;;14.00
73894;BMP280;62699;50.534;12.784;2022-11-12T12:32:08;97950.41;;;13.89
73894;BMP280;62699;50.534;12.784;2022-11-12T12:37:26;97945.16;;;13.80
73894;BMP280;62699;50.534;12.784;2022-11-12T12:42:36;97938.63;;;13.72
73894;BMP280;62699;50.534;12.784;2022-11-12T12:47:41;97940.25;;;13.64
73894;BMP280;62699;50.534;12.784;2022-11-12T12:53:03;97940.63;;;13.51
73894;BMP280;62699;50.534;12.784;2022-11-12T12:58:27;97928.91;;;13.40
73894;BMP280;62699;50.534;12.784;2022-11-12T13:03:50;97918.88;;;13.25
73894;BMP280;62699;50.534;12.784;2022-11-12T13:19:34;97915.56;;;12.66
73894;BMP280;62699;50.534;12.784;2022-11-12T13:35:38;97914.66;;;12.25
73894;BMP280;62699;50.534;12.784;2022-11-12T13:41:06;97912.91;;;12.08
73894;BMP280;62699;50.534;12.784;2022-11-12T13:51:45;97917.06;;;11.70
73894;BMP280;62699;50.534;12.784;2022-11-12T13:56:47;97918.69;;;11.53
73894;BMP280;62699;50.534;12.784;2022-11-12T14:01:48;97917.59;;;11.36
73894;BMP280;62699;50.534;12.784;2022-11-12T14:07:16;97901.41;;;11.12
73894;BMP280;62699;50.534;12.784;2022-11-12T14:23:13;97903.00;;;10.44
73894;BMP280;62699;50.534;12.784;2022-11-12T14:28:33;97896.75;;;10.29
73894;BMP280;62699;50.534;12.784;2022-11-12T14:33:34;97904.84;;;10.10
73894;BMP280;62699;50.534;12.784;2022-11-12T14:38:43;97896.00;;;9.92
73894;BMP280;62699;50.534;12.784;2022-11-12T14:43:48;97899.28;;;9.68
73894;BMP280;62699;50.534;12.784;2022-11-12T14:48:59;97896.56;;;9.41
73894;BMP280;62699;50.534;12.784;2022-11-12T14:54:04;97897.84;;;9.18
73894;BMP280;62699;50.534;12.784;2022-11-12T14:59:06;97895.97;;;8.97
73894;BMP280;62699;50.534;12.784;2022-11-12T15:09:10;97900.13;;;8.58
73894;BMP280;62699;50.534;12.784;2022-11-12T15:14:21;97888.22;;;8.38
73894;BMP280;62699;50.534;12.784;2022-11-12T15:19:25;97894.75;;;8.15
73894;BMP280;62699;50.534;12.784;2022-11-12T15:24:32;97892.34;;;7.95
73894;BMP280;62699;50.534;12.784;2022-11-12T15:29:45;97893.28;;;7.67
73894;BMP280;62699;50.534;12.784;2022-11-12T15:34:46;97888.19;;;7.47
73894;BMP280;62699;50.534;12.784;2022-11-12T15:39:49;97902.16;;;7.29
73894;BMP280;62699;50.534;12.784;2022-11-12T15:44:57;97893.03;;;7.14
73894;BMP280;62699;50.534;12.784;2022-11-12T15:49:59;97892.06;;;7.08
73894;BMP280;62699;50.534;12.784;2022-11-12T15:54:59;97887.78;;;6.98
73894;BMP280;62699;50.534;12.784;2022-11-12T16:00:12;97890.84;;;6.84
73894;BMP280;62699;50.534;12.784;2022-11-12T16:05:15;97902.16;;;6.62
73894;BMP280;62699;50.534;12.784;2022-11-12T16:10:17;97903.00;;;6.47
73894;BMP280;62699;50.534;12.784;2022-11-12T16:15:19;97897.38;;;6.29
73894;BMP280;62699;50.534;12.784;2022-11-12T16:20:27;97896.66;;;6.12
73894;BMP280;62699;50.534;12.784;2022-11-12T16:25:34;97901.22;;;5.99
73894;BMP280;62699;50.534;12.784;2022-11-12T16:30:34;97903.72;;;5.90
73894;BMP280;62699;50.534;12.784;2022-11-12T16:35:35;97908.88;;;5.80
73894;BMP280;62699;50.534;12.784;2022-11-12T16:40:35;97901.97;;;5.67
73894;BMP280;62699;50.534;12.784;2022-11-12T16:45:40;97904.97;;;5.53
73894;BMP280;62699;50.534;12.784;2022-11-12T16:50:41;97900.19;;;5.44
73894;BMP280;62699;50.534;12.784;2022-11-12T16:55:42;97896.25;;;5.32
73894;BMP280;62699;50.534;12.784;2022-11-12T17:00:45;97901.84;;;5.22
73894;BMP280;62699;50.534;12.784;2022-11-12T17:05:50;97894.47;;;5.10
73894;BMP280;62699;50.534;12.784;2022-11-12T17:10:51;97898.88;;;5.00
73894;BMP280;62699;50.534;12.784;2022-11-12T17:16:07;97891.84;;;4.90
73894;BMP280;62699;50.534;12.784;2022-11-12T17:21:17;97888.97;;;4.81
73894;BMP280;62699;50.534;12.784;2022-11-12T17:26:19;97885.72;;;4.73
73894;BMP280;62699;50.534;12.784;2022-11-12T17:31:21;97881.72;;;4.61
73894;BMP280;62699;50.534;12.784;2022-11-12T17:36:25;97881.13;;;4.54
73894;BMP280;62699;50.534;12.784;2022-11-12T17:41:26;97879.06;;;4.42
73894;BMP280;62699;50.534;12.784;2022-11-12T17:46:31;97873.03;;;4.38
73894;BMP280;62699;50.534;12.784;2022-11-12T17:51:35;97859.94;;;4.27
73894;BMP280;62699;50.534;12.784;2022-11-12T17:56:42;97864.16;;;4.25
73894;BMP280;62699;50.534;12.784;2022-11-12T18:01:42;97857.91;;;4.11
73894;BMP280;62699;50.534;12.784;2022-11-12T18:06:42;97854.63;;;4.04
73894;BMP280;62699;50.534;12.784;2022-11-12T18:11:46;97855.16;;;3.95
73894;BMP280;62699;50.534;12.784;2022-11-12T18:16:48;97844.97;;;3.90
73894;BMP280;62699;50.534;12.784;2022-11-12T18:21:48;97844.72;;;3.81
73894;BMP280;62699;50.534;12.784;2022-11-12T18:26:48;97834.19;;;3.74
73894;BMP280;62699;50.534;12.784;2022-11-12T18:31:49;97840.75;;;3.69
73894;BMP280;62699;50.534;12.784;2022-11-12T18:36:49;97830.97;;;3.63
73894;BMP280;62699;50.534;12.784;2022-11-12T18:41:49;97831.81;;;3.56
73894;BMP280;62699;50.534;12.784;2022-11-12T18:46:50;97836.84;;;3.51
73894;BMP280;62699;50.534;12.784;2022-11-12T18:52:04;97838.81;;;3.47
73894;BMP280;62699;50.534;12.784;2022-11-12T18:57:05;97834.75;;;3.38
73894;BMP280;62699;50.534;12.784;2022-11-12T19:02:09;97837.13;;;3.33
73894;BMP280;62699;50.534;12.784;2022-11-12T19:07:09;97837.19;;;3.26
73894;BMP280;62699;50.534;12.784;2022-11-12T19:12:09;97838.44;;;3.21
73894;BMP280;62699;50.534;12.784;2022-11-12T19:17:10;97836.22;;;3.16
73894;BMP280;62699;50.534;12.784;2022-11-12T19:22:10;97827.19;;;3.10
73894;BMP280;62699;50.534;12.784;2022-11-12T19:27:10;97827.28;;;3.03
73894;BMP280;62699;50.534;12.784;2022-11-12T19:32:11;97819.38;;;2.96
73894;BMP280;62699;50.534;12.784;2022-11-12T19:37:12;97827.47;;;2.89
73894;BMP280;62699;50.534;12.784;2022-11-12T19:42:12;97836.66;;;2.84
73894;BMP280;62699;50.534;12.784;2022-11-12T19:47:13;97836.69;;;2.81
73894;BMP280;62699;50.534;12.784;2022-11-12T19:52:13;97841.28;;;2.77
73894;BMP280;62699;50.534;12.784;2022-11-12T19:57:14;97840.59;;;2.73
73894;BMP280;62699;50.534;12.784;2022-11-12T20:02:14;97842.53;;;2.69
73894;BMP280;62699;50.534;12.784;2022-11-12T20:07:15;97833.84;;;2.64
73894;BMP280;62699;50.534;12.784;2022-11-12T20:12:15;97846.44;;;2.60
73894;BMP280;62699;50.534;12.784;2022-11-12T20:17:16;97840.09;;;2.51
73894;BMP280;62699;50.534;12.784;2022-11-12T20:22:16;97831.78;;;2.45
73894;BMP280;62699;50.534;12.784;2022-11-12T20:27:17;97838.69;;;2.39
73894;BMP280;62699;50.534;12.784;2022-11-12T20:32:19;97841.03;;;2.34
73894;BMP280;62699;50.534;12.784;2022-11-12T20:37:19;97826.69;;;2.24
73894;BMP280;62699;50.534;12.784;2022-11-12T20:42:21;97833.22;;;2.19
73894;BMP280;62699;50.534;12.784;2022-11-12T20:47:22;97829.88;;;2.12
73894;BMP280;62699;50.534;12.784;2022-11-12T20:52:22;97825.75;;;2.04
73894;BMP280;62699;50.534;12.784;2022-11-12T20:57:24;97815.16;;;2.00
73894;BMP280;62699;50.534;12.784;2022-11-12T21:02:24;97830.41;;;1.93
73894;BMP280;62699;50.534;12.784;2022-11-12T21:07:24;97817.16;;;1.89
73894;BMP280;62699;50.534;12.784;2022-11-12T21:12:25;97818.00;;;1.82
73894;BMP280;62699;50.534;12.784;2022-11-12T21:17:25;97819.16;;;1.78
73894;BMP280;62699;50.534;12.784;2022-11-12T21:22:26;97805.91;;;1.74
73894;BMP280;62699;50.534;12.784;2022-11-12T21:27:26;97808.63;;;1.71
73894;BMP280;62699;50.534;12.784;2022-11-12T21:32:26;97808.25;;;1.65
73894;BMP280;62699;50.534;12.784;2022-11-12T21:37:27;97800.72;;;1.60
73894;BMP280;62699;50.534;12.784;2022-11-12T21:42:27;97804.53;;;1.56
73894;BMP280;62699;50.534;12.784;2022-11-12T21:47:27;97798.47;;;1.55
73894;BMP280;62699;50.534;12.784;2022-11-12T21:52:28;97795.88;;;1.48
73894;BMP280;62699;50.534;12.784;2022-11-12T21:57:29;97792.53;;;1.40
73894;BMP280;62699;50.534;12.784;2022-11-12T22:02:29;97782.66;;;1.41
73894;BMP280;62699;50.534;12.784;2022-11-12T22:07:30;97781.16;;;1.36
73894;BMP280;62699;50.534;12.784;2022-11-12T22:12:30;97779.72;;;1.32
73894;BMP280;62699;50.534;12.784;2022-11-12T22:17:32;97766.88;;;1.27
73894;BMP280;62699;50.534;12.784;2022-11-12T22:22:32;97762.72;;;1.22
73894;BMP280;62699;50.534;12.784;2022-11-12T22:27:32;97763.50;;;1.19
73894;BMP280;62699;50.534;12.784;2022-11-12T22:32:33;97761.25;;;1.14
73894;BMP280;62699;50.534;12.784;2022-11-12T22:37:33;97757.50;;;1.08
73894;BMP280;62699;50.534;12.784;2022-11-12T22:42:33;97756.00;;;1.03
73894;BMP280;62699;50.534;12.784;2022-11-12T22:47:34;97743.16;;;0.98
73894;BMP280;62699;50.534;12.784;2022-11-12T22:52:34;97742.81;;;0.96
73894;BMP280;62699;50.534;12.784;2022-11-12T22:57:34;97745.09;;;0.94
73894;BMP280;62699;50.534;12.784;2022-11-12T23:02:35;97745.50;;;0.89
73894;BMP280;62699;50.534;12.784;2022-11-12T23:07:35;97737.56;;;0.82
73894;BMP280;62699;50.534;12.784;2022-11-12T23:12:35;97736.09;;;0.78
73894;BMP280;62699;50.534;12.784;2022-11-12T23:17:36;97735.38;;;0.70
73894;BMP280;62699;50.534;12.784;2022-11-12T23:22:36;97731.59;;;0.71
73894;BMP280;62699;50.534;12.784;2022-11-12T23:27:36;97733.06;;;0.72
73894;BMP280;62699;50.534;12.784;2022-11-12T23:32:37;97727.81;;;0.65
73894;BMP280;62699;50.534;12.784;2022-11-12T23:37:37;97725.56;;;0.63
73894;BMP280;62699;50.534;12.784;2022-11-12T23:42:37;97715.00;;;0.56
73894;BMP280;62699;50.534;12.784;2022-11-12T23:47:38;97721.81;;;0.54
73894;BMP280;62699;50.534;12.784;2022-11-12T23:52:38;97717.31;;;0.51
73894;BMP280;62699;50.534;12.784;2022-11-12T23:57:38;97708.22;;;0.48
